THY5747 LTFJ-LTBJ
Flight info
| Callsign | THY5747 |
|---|---|
| Flight time | 0h 50m |
| Altitude | 27000 |
| Route | BIG G80 BERGO |
| Aircraft | B738/M-VW/C |
Departure
| Time | 2026-05-01 08:57 |
|---|---|
| Airport | Istanbul Sabiha Gökçen International Airport (LTFJ) |
Arrival
| Time | 2026-05-01 09:47 |
|---|---|
| Airport | Adnan Menderes International Airport (LTBJ) |
| Time | Latitude | Longitude | Altitude | Speed | Heading |
|---|---|---|---|---|---|
| 2026-05-01 08:38 | 40.90420 | 29.31587 | 320 ft | 0 kts | 154° |
| 2026-05-01 08:46 | 40.90425 | 29.31583 | 320 ft | 2 kts | 154° |
| 2026-05-01 08:46 | 40.90440 | 29.31573 | 319 ft | 2 kts | 154° |
| 2026-05-01 08:46 | 40.90455 | 29.31564 | 320 ft | 2 kts | 154° |
| 2026-05-01 08:46 | 40.90469 | 29.31554 | 319 ft | 2 kts | 154° |
| 2026-05-01 08:47 | 40.90484 | 29.31546 | 318 ft | 2 kts | 176° |
| 2026-05-01 08:47 | 40.90498 | 29.31550 | 318 ft | 1 kts | 236° |
| 2026-05-01 08:47 | 40.90502 | 29.31557 | 318 ft | 0 kts | 246° |
| 2026-05-01 08:49 | 40.90501 | 29.31556 | 318 ft | 1 kts | 246° |
| 2026-05-01 08:50 | 40.90491 | 29.31529 | 319 ft | 6 kts | 240° |
| 2026-05-01 08:50 | 40.90469 | 29.31485 | 320 ft | 6 kts | 237° |
| 2026-05-01 08:50 | 40.90449 | 29.31440 | 320 ft | 6 kts | 236° |
| 2026-05-01 08:50 | 40.90412 | 29.31440 | 318 ft | 6 kts | 159° |
| 2026-05-01 08:51 | 40.90376 | 29.31461 | 320 ft | 6 kts | 153° |
| 2026-05-01 08:51 | 40.90338 | 29.31485 | 320 ft | 7 kts | 154° |
| 2026-05-01 08:51 | 40.90294 | 29.31496 | 320 ft | 7 kts | 189° |
| 2026-05-01 08:51 | 40.90262 | 29.31456 | 319 ft | 6 kts | 242° |
| 2026-05-01 08:52 | 40.90243 | 29.31403 | 320 ft | 6 kts | 244° |
| 2026-05-01 08:52 | 40.90219 | 29.31338 | 319 ft | 10 kts | 244° |
| 2026-05-01 08:52 | 40.90183 | 29.31240 | 320 ft | 13 kts | 244° |
| 2026-05-01 08:52 | 40.90144 | 29.31133 | 320 ft | 13 kts | 244° |
| 2026-05-01 08:53 | 40.90106 | 29.31030 | 319 ft | 12 kts | 244° |
| 2026-05-01 08:53 | 40.90068 | 29.30930 | 320 ft | 12 kts | 244° |
| 2026-05-01 08:53 | 40.90027 | 29.30817 | 320 ft | 15 kts | 244° |
| 2026-05-01 08:53 | 40.89974 | 29.30671 | 320 ft | 20 kts | 244° |
| 2026-05-01 08:54 | 40.89911 | 29.30501 | 320 ft | 20 kts | 244° |
| 2026-05-01 08:54 | 40.89851 | 29.30336 | 319 ft | 20 kts | 244° |
| 2026-05-01 08:54 | 40.89790 | 29.30173 | 320 ft | 19 kts | 244° |
| 2026-05-01 08:54 | 40.89733 | 29.30019 | 320 ft | 19 kts | 244° |
| 2026-05-01 08:55 | 40.89677 | 29.29868 | 318 ft | 18 kts | 244° |
| 2026-05-01 08:55 | 40.89625 | 29.29721 | 320 ft | 17 kts | 245° |
| 2026-05-01 08:55 | 40.89573 | 29.29581 | 320 ft | 17 kts | 243° |
| 2026-05-01 08:55 | 40.89522 | 29.29446 | 320 ft | 16 kts | 243° |
| 2026-05-01 08:56 | 40.89474 | 29.29315 | 319 ft | 15 kts | 244° |
| 2026-05-01 08:56 | 40.89410 | 29.29251 | 320 ft | 11 kts | 182° |
| 2026-05-01 08:56 | 40.89337 | 29.29289 | 319 ft | 11 kts | 153° |
| 2026-05-01 08:56 | 40.89295 | 29.29368 | 321 ft | 11 kts | 94° |
| 2026-05-01 08:57 | 40.89327 | 29.29485 | 321 ft | 29 kts | 65° |
| 2026-05-01 08:57 | 40.89523 | 29.30020 | 320 ft | 99 kts | 64° |
| 2026-05-01 08:57 | 40.89920 | 29.31065 | 377 ft | 149 kts | 62° |
| 2026-05-01 08:57 | 40.90393 | 29.32274 | 1027 ft | 151 kts | 60° |
| 2026-05-01 08:58 | 40.90875 | 29.33566 | 1517 ft | 170 kts | 61° |
| 2026-05-01 08:58 | 40.91397 | 29.35002 | 1992 ft | 181 kts | 60° |
| 2026-05-01 08:58 | 40.91980 | 29.36561 | 2429 ft | 194 kts | 60° |
| 2026-05-01 08:58 | 40.92598 | 29.38193 | 2878 ft | 202 kts | 60° |
| 2026-05-01 08:59 | 40.93243 | 29.39884 | 3306 ft | 208 kts | 60° |
| 2026-05-01 08:59 | 40.93881 | 29.41607 | 3724 ft | 213 kts | 68° |
| 2026-05-01 08:59 | 40.94054 | 29.43631 | 4161 ft | 231 kts | 92° |
| 2026-05-01 08:59 | 40.93579 | 29.45688 | 4597 ft | 240 kts | 118° |
| 2026-05-01 09:00 | 40.92393 | 29.47256 | 5053 ft | 247 kts | 145° |
| 2026-05-01 09:00 | 40.90783 | 29.47991 | 5479 ft | 253 kts | 173° |
| 2026-05-01 09:00 | 40.89012 | 29.47649 | 5929 ft | 259 kts | 203° |
| 2026-05-01 09:00 | 40.87539 | 29.46332 | 6409 ft | 261 kts | 222° |
| 2026-05-01 09:01 | 40.86193 | 29.44661 | 6780 ft | 274 kts | 225° |
| 2026-05-01 09:01 | 40.84809 | 29.42853 | 7372 ft | 283 kts | 225° |
| 2026-05-01 09:01 | 40.83407 | 29.41007 | 8144 ft | 286 kts | 225° |
| 2026-05-01 09:01 | 40.81984 | 29.39138 | 8958 ft | 287 kts | 225° |
| 2026-05-01 09:02 | 40.80574 | 29.37296 | 9941 ft | 284 kts | 225° |
| 2026-05-01 09:02 | 40.79160 | 29.35455 | 10636 ft | 290 kts | 225° |
| 2026-05-01 09:02 | 40.77663 | 29.33511 | 10821 ft | 314 kts | 225° |
| 2026-05-01 09:02 | 40.76053 | 29.31427 | 11025 ft | 334 kts | 225° |
| 2026-05-01 09:03 | 40.74375 | 29.29262 | 11597 ft | 340 kts | 225° |
| 2026-05-01 09:03 | 40.72683 | 29.27086 | 12429 ft | 339 kts | 226° |
| 2026-05-01 09:03 | 40.70986 | 29.24906 | 13150 ft | 342 kts | 226° |
| 2026-05-01 09:03 | 40.69270 | 29.22703 | 13834 ft | 346 kts | 226° |
| 2026-05-01 09:04 | 40.67539 | 29.20484 | 14518 ft | 347 kts | 226° |
| 2026-05-01 09:04 | 40.65808 | 29.18269 | 15241 ft | 347 kts | 226° |
| 2026-05-01 09:04 | 40.64072 | 29.16047 | 15954 ft | 348 kts | 226° |
| 2026-05-01 09:04 | 40.62333 | 29.13824 | 16657 ft | 349 kts | 226° |
| 2026-05-01 09:05 | 40.60587 | 29.11594 | 17388 ft | 350 kts | 227° |
| 2026-05-01 09:05 | 40.58835 | 29.09357 | 18094 ft | 352 kts | 227° |
| 2026-05-01 09:05 | 40.57074 | 29.07112 | 18731 ft | 353 kts | 227° |
| 2026-05-01 09:05 | 40.55305 | 29.04857 | 19363 ft | 355 kts | 226° |
| 2026-05-01 09:06 | 40.53532 | 29.02599 | 20025 ft | 355 kts | 226° |
| 2026-05-01 09:06 | 40.51757 | 29.00340 | 20631 ft | 357 kts | 226° |
| 2026-05-01 09:06 | 40.49961 | 28.98057 | 21225 ft | 360 kts | 226° |
| 2026-05-01 09:06 | 40.48158 | 28.95766 | 21907 ft | 361 kts | 226° |
| 2026-05-01 09:07 | 40.46350 | 28.93471 | 22580 ft | 362 kts | 225° |
| 2026-05-01 09:07 | 40.44536 | 28.91170 | 23202 ft | 364 kts | 225° |
| 2026-05-01 09:07 | 40.42709 | 28.88855 | 23753 ft | 365 kts | 225° |
| 2026-05-01 09:07 | 40.40912 | 28.86579 | 24307 ft | 362 kts | 225° |
| 2026-05-01 09:08 | 40.39085 | 28.84268 | 24891 ft | 359 kts | 225° |
| 2026-05-01 09:08 | 40.37315 | 28.82031 | 25419 ft | 357 kts | 225° |
| 2026-05-01 09:08 | 40.35531 | 28.79777 | 25949 ft | 355 kts | 225° |
| 2026-05-01 09:08 | 40.33754 | 28.77533 | 26466 ft | 354 kts | 225° |
| 2026-05-01 09:09 | 40.31977 | 28.75291 | 26930 ft | 355 kts | 225° |
| 2026-05-01 09:09 | 40.30195 | 28.73045 | 27115 ft | 355 kts | 225° |
| 2026-05-01 09:09 | 40.28423 | 28.70813 | 27138 ft | 353 kts | 225° |
| 2026-05-01 09:09 | 40.26640 | 28.68568 | 27137 ft | 357 kts | 225° |
| 2026-05-01 09:10 | 40.24847 | 28.66313 | 27140 ft | 357 kts | 225° |
| 2026-05-01 09:10 | 40.23056 | 28.64062 | 27141 ft | 357 kts | 225° |
| 2026-05-01 09:10 | 40.21263 | 28.61811 | 27149 ft | 357 kts | 225° |
| 2026-05-01 09:10 | 40.19468 | 28.59559 | 27138 ft | 358 kts | 225° |
| 2026-05-01 09:11 | 40.17671 | 28.57305 | 27138 ft | 358 kts | 225° |
| 2026-05-01 09:11 | 40.15874 | 28.55054 | 27141 ft | 358 kts | 225° |
| 2026-05-01 09:11 | 40.14076 | 28.52803 | 27140 ft | 358 kts | 225° |
| 2026-05-01 09:11 | 40.12274 | 28.50550 | 27135 ft | 358 kts | 225° |
| 2026-05-01 09:12 | 40.10475 | 28.48300 | 27139 ft | 358 kts | 225° |
| 2026-05-01 09:12 | 40.08695 | 28.46077 | 27143 ft | 358 kts | 225° |
| 2026-05-01 09:12 | 40.06892 | 28.43827 | 27144 ft | 358 kts | 225° |
| 2026-05-01 09:12 | 40.05060 | 28.41542 | 27142 ft | 362 kts | 225° |
| 2026-05-01 09:13 | 40.03245 | 28.39280 | 27150 ft | 370 kts | 225° |
| 2026-05-01 09:13 | 40.01361 | 28.36933 | 27148 ft | 379 kts | 225° |
| 2026-05-01 09:13 | 39.99438 | 28.34539 | 27152 ft | 386 kts | 225° |
| 2026-05-01 09:13 | 39.97485 | 28.32111 | 27145 ft | 388 kts | 225° |
| 2026-05-01 09:14 | 39.95535 | 28.29690 | 27131 ft | 388 kts | 225° |
| 2026-05-01 09:14 | 39.93580 | 28.27265 | 27131 ft | 388 kts | 225° |
| 2026-05-01 09:14 | 39.91626 | 28.24843 | 27147 ft | 388 kts | 225° |
| 2026-05-01 09:14 | 39.89661 | 28.22409 | 27137 ft | 389 kts | 225° |
| 2026-05-01 09:15 | 39.87698 | 28.19980 | 27130 ft | 388 kts | 225° |
| 2026-05-01 09:15 | 39.85742 | 28.17561 | 27121 ft | 387 kts | 225° |
| 2026-05-01 09:15 | 39.83820 | 28.15186 | 27129 ft | 385 kts | 225° |
| 2026-05-01 09:15 | 39.81882 | 28.12793 | 27125 ft | 383 kts | 225° |
| 2026-05-01 09:16 | 39.79952 | 28.10412 | 27136 ft | 381 kts | 225° |
| 2026-05-01 09:16 | 39.78030 | 28.08042 | 27147 ft | 381 kts | 225° |
| 2026-05-01 09:16 | 39.76108 | 28.05674 | 27140 ft | 381 kts | 225° |
| 2026-05-01 09:17 | 39.72254 | 28.00932 | 27149 ft | 383 kts | 226° |
| 2026-05-01 09:17 | 39.70317 | 27.98550 | 27157 ft | 384 kts | 226° |
| 2026-05-01 09:17 | 39.66426 | 27.93773 | 27155 ft | 386 kts | 226° |
| 2026-05-01 09:18 | 39.64472 | 27.91379 | 27156 ft | 387 kts | 226° |
| 2026-05-01 09:18 | 39.60543 | 27.86568 | 27155 ft | 389 kts | 226° |
| 2026-05-01 09:19 | 39.56606 | 27.81755 | 27155 ft | 389 kts | 226° |
| 2026-05-01 09:19 | 39.55300 | 27.80161 | 27154 ft | 390 kts | 226° |
| 2026-05-01 09:19 | 39.53325 | 27.77751 | 27158 ft | 390 kts | 226° |
| 2026-05-01 09:20 | 39.49369 | 27.72930 | 27155 ft | 391 kts | 226° |
| 2026-05-01 09:20 | 39.45420 | 27.68127 | 27121 ft | 384 kts | 226° |
| 2026-05-01 09:21 | 39.41670 | 27.63582 | 27098 ft | 354 kts | 226° |
| 2026-05-01 09:21 | 39.39931 | 27.61476 | 27106 ft | 339 kts | 227° |
| 2026-05-01 09:21 | 39.36574 | 27.57407 | 27115 ft | 331 kts | 227° |
| 2026-05-01 09:22 | 39.33201 | 27.53314 | 26541 ft | 330 kts | 227° |
| 2026-05-01 09:22 | 39.29887 | 27.49307 | 25851 ft | 323 kts | 227° |
| 2026-05-01 09:23 | 39.28247 | 27.47327 | 25496 ft | 321 kts | 227° |
| 2026-05-01 09:23 | 39.25016 | 27.43428 | 24785 ft | 316 kts | 227° |
| 2026-05-01 09:24 | 39.21816 | 27.39571 | 24075 ft | 313 kts | 227° |
| 2026-05-01 09:24 | 39.20230 | 27.37661 | 23721 ft | 312 kts | 227° |
| 2026-05-01 09:24 | 39.17073 | 27.33865 | 22926 ft | 308 kts | 227° |
| 2026-05-01 09:25 | 39.13984 | 27.30155 | 22216 ft | 303 kts | 227° |
| 2026-05-01 09:25 | 39.10916 | 27.26475 | 21535 ft | 299 kts | 227° |
| 2026-05-01 09:26 | 39.09399 | 27.24657 | 21198 ft | 297 kts | 227° |
| 2026-05-01 09:26 | 39.06395 | 27.21058 | 20541 ft | 294 kts | 227° |
| 2026-05-01 09:26 | 39.04901 | 27.19268 | 20204 ft | 293 kts | 227° |
| 2026-05-01 09:27 | 39.01915 | 27.15702 | 19529 ft | 292 kts | 227° |
| 2026-05-01 09:27 | 39.00363 | 27.14019 | 19184 ft | 296 kts | 216° |
| 2026-05-01 09:27 | 38.98450 | 27.12976 | 18801 ft | 306 kts | 198° |
| 2026-05-01 09:28 | 38.96338 | 27.12500 | 18452 ft | 309 kts | 194° |
| 2026-05-01 09:28 | 38.94206 | 27.12114 | 18083 ft | 309 kts | 194° |
| 2026-05-01 09:28 | 38.92076 | 27.11748 | 17727 ft | 308 kts | 194° |
| 2026-05-01 09:28 | 38.89954 | 27.11382 | 17386 ft | 306 kts | 194° |
| 2026-05-01 09:29 | 38.85755 | 27.10636 | 16737 ft | 303 kts | 194° |
| 2026-05-01 09:29 | 38.83671 | 27.10259 | 16416 ft | 302 kts | 194° |
| 2026-05-01 09:30 | 38.79564 | 27.09507 | 15780 ft | 299 kts | 194° |
| 2026-05-01 09:30 | 38.77505 | 27.09128 | 15467 ft | 298 kts | 194° |
| 2026-05-01 09:30 | 38.73405 | 27.08372 | 14841 ft | 297 kts | 193° |
| 2026-05-01 09:31 | 38.71358 | 27.07995 | 14521 ft | 297 kts | 193° |
| 2026-05-01 09:31 | 38.69317 | 27.07618 | 14220 ft | 296 kts | 193° |
| 2026-05-01 09:31 | 38.65233 | 27.06865 | 13536 ft | 296 kts | 193° |
| 2026-05-01 09:32 | 38.63197 | 27.06489 | 13205 ft | 295 kts | 193° |
| 2026-05-01 09:32 | 38.59151 | 27.05745 | 12554 ft | 292 kts | 192° |
| 2026-05-01 09:32 | 38.57136 | 27.05375 | 12233 ft | 291 kts | 192° |
| 2026-05-01 09:33 | 38.55134 | 27.05007 | 11920 ft | 290 kts | 192° |
| 2026-05-01 09:33 | 38.53137 | 27.04640 | 11600 ft | 290 kts | 192° |
| 2026-05-01 09:33 | 38.49154 | 27.03909 | 11005 ft | 290 kts | 192° |
| 2026-05-01 09:34 | 38.47178 | 27.03545 | 10698 ft | 292 kts | 192° |
| 2026-05-01 09:34 | 38.45151 | 27.03173 | 10352 ft | 295 kts | 192° |
| 2026-05-01 09:34 | 38.41201 | 27.02453 | 10094 ft | 279 kts | 192° |
| 2026-05-01 09:35 | 38.39297 | 27.02105 | 9860 ft | 276 kts | 192° |
| 2026-05-01 09:35 | 38.35487 | 27.01410 | 9276 ft | 277 kts | 191° |
| 2026-05-01 09:35 | 38.33575 | 27.01082 | 8944 ft | 278 kts | 186° |
| 2026-05-01 09:36 | 38.31646 | 27.01349 | 8674 ft | 278 kts | 176° |
| 2026-05-01 09:36 | 38.29734 | 27.01586 | 8464 ft | 275 kts | 176° |
| 2026-05-01 09:36 | 38.27856 | 27.01878 | 8373 ft | 267 kts | 175° |
| 2026-05-01 09:36 | 38.26008 | 27.02187 | 8159 ft | 268 kts | 175° |
| 2026-05-01 09:37 | 38.24174 | 27.02502 | 7950 ft | 262 kts | 175° |
| 2026-05-01 09:37 | 38.20657 | 27.03106 | 7524 ft | 247 kts | 175° |
| 2026-05-01 09:37 | 38.18994 | 27.03396 | 7317 ft | 241 kts | 175° |
| 2026-05-01 09:38 | 38.15759 | 27.03940 | 6903 ft | 228 kts | 175° |
| 2026-05-01 09:38 | 38.14205 | 27.04190 | 6695 ft | 223 kts | 175° |
| 2026-05-01 09:38 | 38.12681 | 27.04425 | 6481 ft | 219 kts | 175° |
| 2026-05-01 09:39 | 38.09721 | 27.04857 | 6048 ft | 209 kts | 175° |
| 2026-05-01 09:39 | 38.08288 | 27.05062 | 5868 ft | 207 kts | 175° |
| 2026-05-01 09:39 | 38.06859 | 27.05299 | 5713 ft | 210 kts | 166° |
| 2026-05-01 09:40 | 38.05617 | 27.06257 | 5499 ft | 213 kts | 129° |
| 2026-05-01 09:40 | 38.05029 | 27.09764 | 5123 ft | 208 kts | 86° |
| 2026-05-01 09:40 | 38.05073 | 27.11614 | 4929 ft | 212 kts | 85° |
| 2026-05-01 09:41 | 38.05129 | 27.13495 | 4632 ft | 213 kts | 85° |
| 2026-05-01 09:41 | 38.05235 | 27.17176 | 4063 ft | 205 kts | 85° |
| 2026-05-01 09:41 | 38.05285 | 27.18976 | 3800 ft | 203 kts | 85° |
| 2026-05-01 09:42 | 38.05546 | 27.20692 | 3531 ft | 195 kts | 53° |
| 2026-05-01 09:42 | 38.06574 | 27.21610 | 3484 ft | 182 kts | 6° |
| 2026-05-01 09:42 | 38.09066 | 27.21446 | 3472 ft | 176 kts | 354° |
| 2026-05-01 09:43 | 38.11476 | 27.21044 | 3495 ft | 180 kts | 350° |
| 2026-05-01 09:43 | 38.12725 | 27.20706 | 3432 ft | 186 kts | 348° |
| 2026-05-01 09:43 | 38.14007 | 27.20325 | 3196 ft | 192 kts | 347° |
| 2026-05-01 09:44 | 38.16535 | 27.19557 | 2688 ft | 178 kts | 348° |
| 2026-05-01 09:44 | 38.17702 | 27.19203 | 2444 ft | 167 kts | 349° |
| 2026-05-01 09:44 | 38.18792 | 27.18871 | 2244 ft | 157 kts | 350° |
| 2026-05-01 09:45 | 38.19846 | 27.18551 | 2082 ft | 153 kts | 349° |
| 2026-05-01 09:45 | 38.21776 | 27.17964 | 1624 ft | 132 kts | 349° |
| 2026-05-01 09:45 | 38.22664 | 27.17697 | 1454 ft | 136 kts | 348° |
| 2026-05-01 09:46 | 38.23650 | 27.17397 | 1283 ft | 151 kts | 348° |
| 2026-05-01 09:46 | 38.24670 | 27.17088 | 1027 ft | 148 kts | 348° |
| 2026-05-01 09:46 | 38.25652 | 27.16764 | 835 ft | 143 kts | 348° |
| 2026-05-01 09:46 | 38.26587 | 27.16461 | 673 ft | 137 kts | 351° |
| 2026-05-01 09:47 | 38.27498 | 27.16203 | 502 ft | 132 kts | 350° |
| 2026-05-01 09:47 | 38.28354 | 27.15958 | 415 ft | 114 kts | 346° |
| 2026-05-01 09:47 | 38.28891 | 27.15800 | 415 ft | 56 kts | 347° |
| 2026-05-01 09:47 | 38.29199 | 27.15708 | 416 ft | 40 kts | 347° |
| 2026-05-01 09:48 | 38.29349 | 27.15663 | 410 ft | 16 kts | 345° |
| 2026-05-01 09:48 | 38.29422 | 27.15591 | 415 ft | 14 kts | 269° |
| 2026-05-01 09:48 | 38.29401 | 27.15474 | 411 ft | 13 kts | 256° |
| 2026-05-01 09:48 | 38.29380 | 27.15363 | 419 ft | 13 kts | 257° |
| 2026-05-01 09:49 | 38.29360 | 27.15255 | 410 ft | 12 kts | 257° |
| 2026-05-01 09:49 | 38.29346 | 27.15149 | 411 ft | 12 kts | 275° |
| 2026-05-01 09:49 | 38.29404 | 27.15103 | 413 ft | 10 kts | 348° |
| 2026-05-01 09:49 | 38.29454 | 27.15076 | 418 ft | 5 kts | 301° |
| 2026-05-01 09:50 | 38.29456 | 27.15062 | 415 ft | 0 kts | 281° |
| 2026-05-01 09:50 | 38.29456 | 27.15061 | 416 ft | 1 kts | 279° |
| 2026-05-01 09:51 | 38.29454 | 27.15036 | 418 ft | 5 kts | 259° |
| 2026-05-01 09:51 | 38.29445 | 27.14983 | 413 ft | 2 kts | 256° |
| 2026-05-01 09:51 | 38.29444 | 27.14981 | 414 ft | 0 kts | 256° |